** WELKOM OP ONZE WEBSITE MET ACTUELE WEERDATA VANUIT IZEGEM **
Het weer levert geen direct gevaar op.    Er zijn geen waarschuwingen afgegeven.

Weercam te Izegem Meer informatie Weercam te Izegem


Lokaal brand risico:
FWI


Regionaal brand risico: Meer informatie


Steun ons initiatief via een kleine donatie!



METAR rapporten vliegvelden

   
EBOS - Oostende Airport, Belgium
Afstand tot: NW 39 km
Gewijzigd: 17-06-2019 14:20
Gedeeltelijk bewolkt  
Gedeeltelijk bewolkt  
   Wind: NW 13 km/h
Wind: NW 13 km/h
Temperatuur: 19°C
Dauwpunt: 15°C
Vochtigheid: 78%
Barometer: 1019 hPa
Bewolking: Partly Cloudy
Zicht: meer dan 10 km
Bewolking: Gedeeltelijk bewolkt 4200 ft
EBOS 171220Z 32007KT 9999 SCT042 19/15 Q1019 NOSIG
LFQQ - Lille/Lesquin, France
Afstand tot: Z 40 km
Gewijzigd: 17-06-2019 14:30
Grotendeels bewolkt  
Grotendeels bewolkt  
   Wind: ZZW 13 km/h
Wind: ZZW 13 km/h
Temperatuur: 24°C
Dauwpunt: 12°C
Vochtigheid: 47%
Barometer: 1018 hPa
Bewolking: Mostly Cloudy
Zicht: meer dan 10 km
Bewolking: Gedeeltelijk bewolkt 4600 ft,
Grotendeels bewolkt 5400 ft
LFQQ 171230Z AUTO 20007KT 150V250 9999 SCT046 BKN054 24/12 Q1018 NOSIG
EBFN - Koksijde (bel-Af, Belgium
Afstand tot: WNW 43 km
Gewijzigd: 17-06-2019 14:25
Gedeeltelijk bewolkt  
Gedeeltelijk bewolkt  
   Wind: NW 14.8 km/h
Wind: NW 14.8 km/h
Temperatuur: 20°C
Dauwpunt: 14°C
Vochtigheid: 69%
Barometer: 1019 hPa
Bewolking: Partly Cloudy
Zicht: meer dan 10 km
Bewolking: Licht bewolkt 2500 ft,
Gedeeltelijk bewolkt 5000 ft
EBFN 171225Z 31008KT 9999 FEW025 SCT050 20/14 Q1019 BLU BLU
EBCV - Chievres Ab, Belgium
Afstand tot: ZO 59 km
Gewijzigd: 17-06-2019 14:25
Licht bewolkt  
Licht bewolkt  
   Wind: ZZW 9.3 km/h
Wind: ZZW 9.3 km/h
Temperatuur: 23°C
Dauwpunt: 13°C
Vochtigheid: 53%
Barometer: 1019 hPa
Bewolking: Few Clouds
Zicht: meer dan 10 km
Bewolking: Licht bewolkt 300 ft
EBCV 171225Z AUTO 20005KT 9999 FEW003/// 23/13 Q1019 BLU
EHFS - Vlissingen, Netherlands
Afstand tot: NNO 65 km
Gewijzigd: 17-06-2019 14:25
Grotendeels bewolkt  
Grotendeels bewolkt  
   Wind: Westen 9.3 km/h
Wind: Westen 9.3 km/h
Temperatuur: 23°C
Dauwpunt: 15°C
Vochtigheid: 61%
Barometer: 1018 hPa
Bewolking: Mostly Cloudy
Zicht: meer dan 10 km
Bewolking: Gedeeltelijk bewolkt 4000 ft,
Grotendeels bewolkt 4900 ft
EHFS 171225Z AUTO 26005KT 220V310 9999 SCT040/// BKN049/// 23/15 Q1018 W///H///
EBBR - Brussels Nationa, Belgium
Afstand tot: O 91 km
Gewijzigd: 17-06-2019 14:20
Helder  
Helder  
   Wind: ZO 11.1 km/h
Wind: ZO 11.1 km/h
Temperatuur: 23°C
Dauwpunt: 13°C
Vochtigheid: 53%
Barometer: 1019 hPa
Zicht: meer dan 10 km
Bewolking: Helder ft
EBBR 171220Z 14006KT 120V180 CAVOK 23/13 Q1019 NOSIG
EBAW - Antwerp/Deurne, Belgium
Afstand tot: ONO 94 km
Gewijzigd: 17-06-2019 14:20
Gedeeltelijk bewolkt  
Gedeeltelijk bewolkt  
   Wind: ZW 14.8 km/h
Wind: ZW 14.8 km/h
Temperatuur: 25°C
Dauwpunt: 12°C
Vochtigheid: 44%
Barometer: 1019 hPa
Bewolking: Partly Cloudy
Zicht: meer dan 10 km
Bewolking: Gedeeltelijk bewolkt 4900 ft
EBAW 171220Z 22008KT 190V250 9999 SCT049 25/12 Q1019 NOSIG
EHWO - Woensdrecht Rnla, Netherlands
Afstand tot: NO 98 km
Gewijzigd: 17-06-2019 14:25
Grotendeels bewolkt  
Grotendeels bewolkt  
   Wind: ZW 9.3 km/h
Wind: ZW 9.3 km/h
Temperatuur: 23°C
Dauwpunt: 13°C
Vochtigheid: 53%
Barometer: 1018 hPa
Bewolking: Mostly Cloudy
Zicht: meer dan 10 km
Bewolking: Gedeeltelijk bewolkt 4500 ft,
Grotendeels bewolkt 4900 ft,
Grotendeels bewolkt 5300 ft
EHWO 171225Z AUTO 23005KT 130V270 9999 SCT045 BKN049 BKN053 23/13 Q1018 BLU 23010KT 9999 SCT050
EBCI - Charleroi/Gossel, Belgium
Afstand tot: OZO 102 km
Gewijzigd: 17-06-2019 14:20
Helder  
Helder  
   Wind: varieert 5.6 km/h
Wind: varieert 5.6 km/h
Temperatuur: 23°C
Dauwpunt: 12°C
Vochtigheid: 50%
Barometer: 1020 hPa
Zicht: meer dan 10 km
Bewolking: Helder ft
EBCI 171220Z VRB03KT CAVOK 23/12 Q1020 NOSIG

Script ontwikkeld door  Saratoga-weather.org Aangepast voor de template door  Weerstation Leuven